sensor_id;sensor_type;location;lat;lon;timestamp;P1;durP1;ratioP1;P2;durP2;ratioP2
51810;SDS011;52468;40.116;18.296;2023-04-01T00:00:51;34.70;;;7.80;;
51810;SDS011;52468;40.116;18.296;2023-04-01T00:03:20;21.73;;;7.37;;
51810;SDS011;52468;40.116;18.296;2023-04-01T00:05:49;24.80;;;6.03;;
51810;SDS011;52468;40.116;18.296;2023-04-01T00:08:17;25.33;;;8.40;;
51810;SDS011;52468;40.116;18.296;2023-04-01T00:10:45;15.10;;;7.50;;
51810;SDS011;52468;40.116;18.296;2023-04-01T00:13:13;35.07;;;8.93;;
51810;SDS011;52468;40.116;18.296;2023-04-01T00:15:42;23.17;;;6.43;;
51810;SDS011;52468;40.116;18.296;2023-04-01T00:18:10;38.17;;;6.83;;
51810;SDS011;52468;40.116;18.296;2023-04-01T00:20:38;20.80;;;7.03;;
51810;SDS011;52468;40.116;18.296;2023-04-01T00:23:11;18.87;;;7.50;;
51810;SDS011;52468;40.116;18.296;2023-04-01T00:25:39;32.33;;;7.13;;
51810;SDS011;52468;40.116;18.296;2023-04-01T00:28:07;23.27;;;7.23;;
51810;SDS011;52468;40.116;18.296;2023-04-01T00:30:35;16.10;;;6.40;;
51810;SDS011;52468;40.116;18.296;2023-04-01T00:33:04;18.93;;;7.27;;
51810;SDS011;52468;40.116;18.296;2023-04-01T00:35:32;26.17;;;7.43;;
51810;SDS011;52468;40.116;18.296;2023-04-01T00:38:00;26.77;;;7.00;;
51810;SDS011;52468;40.116;18.296;2023-04-01T00:40:31;28.17;;;5.63;;
51810;SDS011;52468;40.116;18.296;2023-04-01T00:43:02;23.63;;;8.43;;
51810;SDS011;52468;40.116;18.296;2023-04-01T00:45:36;20.57;;;6.43;;
51810;SDS011;52468;40.116;18.296;2023-04-01T00:48:09;16.93;;;6.90;;
51810;SDS011;52468;40.116;18.296;2023-04-01T00:50:42;17.77;;;7.03;;
51810;SDS011;52468;40.116;18.296;2023-04-01T00:53:45;31.23;;;8.90;;
51810;SDS011;52468;40.116;18.296;2023-04-01T00:56:17;25.63;;;8.83;;
51810;SDS011;52468;40.116;18.296;2023-04-01T00:58:50;20.70;;;6.57;;
51810;SDS011;52468;40.116;18.296;2023-04-01T01:01:24;19.70;;;8.17;;
51810;SDS011;52468;40.116;18.296;2023-04-01T01:03:52;42.57;;;8.47;;
51810;SDS011;52468;40.116;18.296;2023-04-01T01:06:26;21.00;;;7.00;;
51810;SDS011;52468;40.116;18.296;2023-04-01T01:09:02;26.23;;;9.37;;
51810;SDS011;52468;40.116;18.296;2023-04-01T01:11:50;14.47;;;6.37;;
51810;SDS011;52468;40.116;18.296;2023-04-01T01:14:34;18.77;;;5.82;;
51810;SDS011;52468;40.116;18.296;2023-04-01T01:37:57;14.10;;;7.03;;
51810;SDS011;52468;40.116;18.296;2023-04-01T01:40:30;27.37;;;7.77;;
51810;SDS011;52468;40.116;18.296;2023-04-01T01:43:03;25.33;;;10.47;;
51810;SDS011;52468;40.116;18.296;2023-04-01T01:45:33;33.13;;;7.80;;
51810;SDS011;52468;40.116;18.296;2023-04-01T01:48:06;28.80;;;6.88;;
51810;SDS011;52468;40.116;18.296;2023-04-01T01:50:36;18.87;;;6.67;;
51810;SDS011;52468;40.116;18.296;2023-04-01T01:53:06;21.20;;;5.63;;
51810;SDS011;52468;40.116;18.296;2023-04-01T01:55:37;23.30;;;7.40;;
51810;SDS011;52468;40.116;18.296;2023-04-01T01:58:09;17.13;;;7.23;;
51810;SDS011;52468;40.116;18.296;2023-04-01T02:00:54;18.83;;;7.10;;
51810;SDS011;52468;40.116;18.296;2023-04-01T02:03:29;24.57;;;7.30;;
51810;SDS011;52468;40.116;18.296;2023-04-01T02:06:00;27.70;;;7.23;;
51810;SDS011;52468;40.116;18.296;2023-04-01T02:08:32;34.30;;;8.20;;
51810;SDS011;52468;40.116;18.296;2023-04-01T02:11:20;19.50;;;9.80;;
51810;SDS011;52468;40.116;18.296;2023-04-01T02:13:54;20.10;;;6.93;;
51810;SDS011;52468;40.116;18.296;2023-04-01T02:17:04;22.70;;;7.73;;
51810;SDS011;52468;40.116;18.296;2023-04-01T02:19:33;29.23;;;6.83;;
51810;SDS011;52468;40.116;18.296;2023-04-01T02:22:09;29.70;;;8.47;;
51810;SDS011;52468;40.116;18.296;2023-04-01T02:24:40;27.93;;;8.53;;
51810;SDS011;52468;40.116;18.296;2023-04-01T02:27:10;24.67;;;8.70;;
51810;SDS011;52468;40.116;18.296;2023-04-01T02:29:39;25.87;;;7.87;;
51810;SDS011;52468;40.116;18.296;2023-04-01T02:32:07;19.33;;;7.07;;
51810;SDS011;52468;40.116;18.296;2023-04-01T02:34:36;20.33;;;6.70;;
51810;SDS011;52468;40.116;18.296;2023-04-01T02:37:04;26.93;;;9.70;;
51810;SDS011;52468;40.116;18.296;2023-04-01T02:39:32;23.00;;;8.17;;
51810;SDS011;52468;40.116;18.296;2023-04-01T02:42:01;39.70;;;9.77;;
51810;SDS011;52468;40.116;18.296;2023-04-01T02:44:29;26.20;;;8.90;;
51810;SDS011;52468;40.116;18.296;2023-04-01T02:46:57;33.97;;;10.47;;
51810;SDS011;52468;40.116;18.296;2023-04-01T02:49:25;26.17;;;9.17;;
51810;SDS011;52468;40.116;18.296;2023-04-01T02:51:53;29.00;;;9.00;;
51810;SDS011;52468;40.116;18.296;2023-04-01T02:54:21;21.53;;;8.93;;
51810;SDS011;52468;40.116;18.296;2023-04-01T02:56:49;31.37;;;8.30;;
51810;SDS011;52468;40.116;18.296;2023-04-01T02:59:17;23.57;;;6.93;;
51810;SDS011;52468;40.116;18.296;2023-04-01T03:01:45;19.67;;;8.00;;
51810;SDS011;52468;40.116;18.296;2023-04-01T03:04:12;31.27;;;7.87;;
51810;SDS011;52468;40.116;18.296;2023-04-01T03:06:40;28.63;;;9.00;;
51810;SDS011;52468;40.116;18.296;2023-04-01T03:09:08;27.60;;;8.97;;
51810;SDS011;52468;40.116;18.296;2023-04-01T03:11:36;19.43;;;7.47;;
51810;SDS011;52468;40.116;18.296;2023-04-01T03:14:04;21.10;;;7.47;;
51810;SDS011;52468;40.116;18.296;2023-04-01T03:16:32;21.23;;;10.17;;
51810;SDS011;52468;40.116;18.296;2023-04-01T03:19:00;41.37;;;8.27;;
51810;SDS011;52468;40.116;18.296;2023-04-01T03:21:31;28.37;;;7.70;;
51810;SDS011;52468;40.116;18.296;2023-04-01T03:24:00;28.63;;;9.07;;
51810;SDS011;52468;40.116;18.296;2023-04-01T03:26:28;35.13;;;7.80;;
51810;SDS011;52468;40.116;18.296;2023-04-01T03:29:00;24.40;;;9.07;;
51810;SDS011;52468;40.116;18.296;2023-04-01T03:31:28;30.50;;;10.53;;
51810;SDS011;52468;40.116;18.296;2023-04-01T03:33:56;24.93;;;9.77;;
51810;SDS011;52468;40.116;18.296;2023-04-01T03:36:24;28.70;;;8.47;;
51810;SDS011;52468;40.116;18.296;2023-04-01T03:38:52;23.10;;;8.83;;
51810;SDS011;52468;40.116;18.296;2023-04-01T03:41:30;23.70;;;8.30;;
51810;SDS011;52468;40.116;18.296;2023-04-01T03:43:59;26.93;;;11.10;;
51810;SDS011;52468;40.116;18.296;2023-04-01T03:46:27;34.40;;;9.20;;
51810;SDS011;52468;40.116;18.296;2023-04-01T03:48:55;25.67;;;10.47;;
51810;SDS011;52468;40.116;18.296;2023-04-01T03:51:23;32.50;;;8.67;;
51810;SDS011;52468;40.116;18.296;2023-04-01T03:53:51;24.57;;;8.20;;
51810;SDS011;52468;40.116;18.296;2023-04-01T03:56:20;29.43;;;10.90;;
51810;SDS011;52468;40.116;18.296;2023-04-01T03:58:47;36.37;;;10.70;;
51810;SDS011;52468;40.116;18.296;2023-04-01T04:01:20;35.80;;;10.67;;
51810;SDS011;52468;40.116;18.296;2023-04-01T04:03:52;37.63;;;10.13;;
51810;SDS011;52468;40.116;18.296;2023-04-01T04:06:22;33.60;;;9.80;;
51810;SDS011;52468;40.116;18.296;2023-04-01T04:08:51;40.97;;;10.63;;
51810;SDS011;52468;40.116;18.296;2023-04-01T04:11:20;39.60;;;12.27;;
51810;SDS011;52468;40.116;18.296;2023-04-01T04:13:51;30.47;;;10.17;;
51810;SDS011;52468;40.116;18.296;2023-04-01T04:16:20;48.20;;;12.33;;
51810;SDS011;52468;40.116;18.296;2023-04-01T04:18:55;35.77;;;10.70;;
51810;SDS011;52468;40.116;18.296;2023-04-01T04:21:23;34.97;;;10.87;;
51810;SDS011;52468;40.116;18.296;2023-04-01T04:23:53;32.93;;;9.97;;
51810;SDS011;52468;40.116;18.296;2023-04-01T04:26:21;35.47;;;10.53;;
51810;SDS011;52468;40.116;18.296;2023-04-01T04:29:06;38.20;;;12.30;;
51810;SDS011;52468;40.116;18.296;2023-04-01T04:31:34;33.33;;;10.73;;
51810;SDS011;52468;40.116;18.296;2023-04-01T04:34:02;29.57;;;8.40;;
51810;SDS011;52468;40.116;18.296;2023-04-01T04:36:34;30.27;;;11.63;;
51810;SDS011;52468;40.116;18.296;2023-04-01T04:39:02;46.10;;;11.67;;
51810;SDS011;52468;40.116;18.296;2023-04-01T04:41:32;37.80;;;10.77;;
51810;SDS011;52468;40.116;18.296;2023-04-01T04:44:01;27.83;;;8.70;;
51810;SDS011;52468;40.116;18.296;2023-04-01T04:46:29;31.90;;;9.93;;
51810;SDS011;52468;40.116;18.296;2023-04-01T04:49:07;31.90;;;8.90;;
51810;SDS011;52468;40.116;18.296;2023-04-01T04:51:35;39.53;;;10.83;;
51810;SDS011;52468;40.116;18.296;2023-04-01T04:54:03;40.53;;;10.13;;
51810;SDS011;52468;40.116;18.296;2023-04-01T04:56:52;37.73;;;12.33;;
51810;SDS011;52468;40.116;18.296;2023-04-01T04:59:22;42.37;;;11.23;;
51810;SDS011;52468;40.116;18.296;2023-04-01T05:02:16;32.17;;;9.97;;
51810;SDS011;52468;40.116;18.296;2023-04-01T05:04:44;38.60;;;10.50;;
51810;SDS011;52468;40.116;18.296;2023-04-01T05:07:13;41.90;;;13.63;;
51810;SDS011;52468;40.116;18.296;2023-04-01T05:09:41;37.20;;;10.33;;
51810;SDS011;52468;40.116;18.296;2023-04-01T05:12:09;37.20;;;12.43;;
51810;SDS011;52468;40.116;18.296;2023-04-01T05:14:55;42.53;;;9.77;;
51810;SDS011;52468;40.116;18.296;2023-04-01T05:17:23;37.47;;;12.27;;
51810;SDS011;52468;40.116;18.296;2023-04-01T05:19:51;26.53;;;11.73;;
51810;SDS011;52468;40.116;18.296;2023-04-01T05:22:19;43.33;;;12.67;;
51810;SDS011;52468;40.116;18.296;2023-04-01T05:24:47;37.70;;;11.93;;
51810;SDS011;52468;40.116;18.296;2023-04-01T05:27:16;36.33;;;13.60;;
51810;SDS011;52468;40.116;18.296;2023-04-01T05:29:44;31.07;;;12.00;;
51810;SDS011;52468;40.116;18.296;2023-04-01T05:32:41;43.63;;;13.07;;
51810;SDS011;52468;40.116;18.296;2023-04-01T05:35:11;29.17;;;10.40;;
51810;SDS011;52468;40.116;18.296;2023-04-01T05:37:38;31.17;;;10.93;;
51810;SDS011;52468;40.116;18.296;2023-04-01T05:40:06;24.27;;;9.67;;
51810;SDS011;52468;40.116;18.296;2023-04-01T05:42:35;36.13;;;11.20;;
51810;SDS011;52468;40.116;18.296;2023-04-01T05:45:04;28.87;;;9.27;;
51810;SDS011;52468;40.116;18.296;2023-04-01T05:48:04;33.33;;;8.30;;
51810;SDS011;52468;40.116;18.296;2023-04-01T05:50:39;23.13;;;10.30;;
51810;SDS011;52468;40.116;18.296;2023-04-01T05:53:09;28.20;;;11.43;;
51810;SDS011;52468;40.116;18.296;2023-04-01T05:55:40;27.43;;;8.23;;
51810;SDS011;52468;40.116;18.296;2023-04-01T05:58:08;27.63;;;7.10;;
51810;SDS011;52468;40.116;18.296;2023-04-01T06:00:38;23.33;;;7.07;;
51810;SDS011;52468;40.116;18.296;2023-04-01T06:03:06;37.00;;;10.07;;
51810;SDS011;52468;40.116;18.296;2023-04-01T06:05:38;25.10;;;7.77;;
51810;SDS011;52468;40.116;18.296;2023-04-01T06:08:11;34.97;;;8.47;;
51810;SDS011;52468;40.116;18.296;2023-04-01T06:13:28;19.50;;;8.33;;
51810;SDS011;52468;40.116;18.296;2023-04-01T06:16:35;25.97;;;8.50;;
51810;SDS011;52468;40.116;18.296;2023-04-01T06:30:30;27.97;;;5.80;;
51810;SDS011;52468;40.116;18.296;2023-04-01T06:46:24;15.90;;;6.30;;
51810;SDS011;52468;40.116;18.296;2023-04-01T06:49:33;20.43;;;5.57;;
51810;SDS011;52468;40.116;18.296;2023-04-01T06:55:47;13.47;;;3.80;;
51810;SDS011;52468;40.116;18.296;2023-04-01T06:58:54;11.33;;;4.33;;
51810;SDS011;52468;40.116;18.296;2023-04-01T07:01:29;6.07;;;3.13;;
51810;SDS011;52468;40.116;18.296;2023-04-01T07:04:26;8.33;;;3.60;;
51810;SDS011;52468;40.116;18.296;2023-04-01T07:07:04;9.27;;;3.90;;
51810;SDS011;52468;40.116;18.296;2023-04-01T07:09:50;6.47;;;3.50;;
51810;SDS011;52468;40.116;18.296;2023-04-01T07:18:04;9.17;;;3.70;;
51810;SDS011;52468;40.116;18.296;2023-04-01T07:20:38;6.80;;;4.43;;
51810;SDS011;52468;40.116;18.296;2023-04-01T07:23:16;15.00;;;5.63;;
51810;SDS011;52468;40.116;18.296;2023-04-01T07:26:18;10.13;;;4.43;;
51810;SDS011;52468;40.116;18.296;2023-04-01T07:28:54;10.27;;;4.68;;
51810;SDS011;52468;40.116;18.296;2023-04-01T07:31:45;9.83;;;3.90;;
51810;SDS011;52468;40.116;18.296;2023-04-01T07:51:59;10.90;;;5.10;;
51810;SDS011;52468;40.116;18.296;2023-04-01T07:54:43;8.83;;;3.57;;
51810;SDS011;52468;40.116;18.296;2023-04-01T07:57:18;6.45;;;3.22;;
51810;SDS011;52468;40.116;18.296;2023-04-01T08:00:37;9.07;;;3.30;;
51810;SDS011;52468;40.116;18.296;2023-04-01T08:09:09;10.63;;;4.27;;
51810;SDS011;52468;40.116;18.296;2023-04-01T08:15:23;8.87;;;2.80;;
51810;SDS011;52468;40.116;18.296;2023-04-01T08:20:57;8.45;;;4.20;;
51810;SDS011;52468;40.116;18.296;2023-04-01T08:23:32;11.30;;;3.57;;
51810;SDS011;52468;40.116;18.296;2023-04-01T08:34:05;12.60;;;4.73;;
51810;SDS011;52468;40.116;18.296;2023-04-01T08:36:51;14.90;;;3.50;;
51810;SDS011;52468;40.116;18.296;2023-04-01T08:39:51;17.27;;;3.67;;
51810;SDS011;52468;40.116;18.296;2023-04-01T08:48:07;11.10;;;5.67;;
51810;SDS011;52468;40.116;18.296;2023-04-01T09:02:45;8.07;;;4.20;;
51810;SDS011;52468;40.116;18.296;2023-04-01T09:19:31;9.73;;;3.30;;
51810;SDS011;52468;40.116;18.296;2023-04-01T09:36:02;12.13;;;4.07;;
51810;SDS011;52468;40.116;18.296;2023-04-01T09:38:58;11.27;;;4.77;;
51810;SDS011;52468;40.116;18.296;2023-04-01T09:52:55;13.73;;;4.53;;
51810;SDS011;52468;40.116;18.296;2023-04-01T10:01:25;8.33;;;2.93;;
51810;SDS011;52468;40.116;18.296;2023-04-01T10:06:57;8.30;;;3.03;;
51810;SDS011;52468;40.116;18.296;2023-04-01T10:15:21;9.47;;;3.73;;
51810;SDS011;52468;40.116;18.296;2023-04-01T10:33:03;8.30;;;2.80;;
51810;SDS011;52468;40.116;18.296;2023-04-01T11:06:11;9.63;;;3.43;;
51810;SDS011;52468;40.116;18.296;2023-04-01T11:20:45;8.17;;;3.17;;
51810;SDS011;52468;40.116;18.296;2023-04-01T11:23:59;8.57;;;4.00;;
51810;SDS011;52468;40.116;18.296;2023-04-01T11:31:54;6.03;;;3.95;;
51810;SDS011;52468;40.116;18.296;2023-04-01T11:37:33;5.93;;;2.40;;
51810;SDS011;52468;40.116;18.296;2023-04-01T11:58:39;4.50;;;2.37;;
51810;SDS011;52468;40.116;18.296;2023-04-01T12:04:40;5.33;;;2.70;;
51810;SDS011;52468;40.116;18.296;2023-04-01T12:12:48;5.90;;;3.87;;
51810;SDS011;52468;40.116;18.296;2023-04-01T12:18:42;8.27;;;3.05;;
51810;SDS011;52468;40.116;18.296;2023-04-01T12:24:02;4.93;;;2.33;;
51810;SDS011;52468;40.116;18.296;2023-04-01T12:26:52;7.17;;;2.47;;
51810;SDS011;52468;40.116;18.296;2023-04-01T12:32:45;4.30;;;2.83;;
51810;SDS011;52468;40.116;18.296;2023-04-01T12:41:14;5.87;;;2.53;;
51810;SDS011;52468;40.116;18.296;2023-04-01T12:44:04;5.93;;;3.53;;
51810;SDS011;52468;40.116;18.296;2023-04-01T13:06:56;5.10;;;2.90;;
51810;SDS011;52468;40.116;18.296;2023-04-01T13:12:16;8.43;;;3.90;;
51810;SDS011;52468;40.116;18.296;2023-04-01T13:23:49;6.77;;;2.87;;
51810;SDS011;52468;40.116;18.296;2023-04-01T13:26:34;5.63;;;3.17;;
51810;SDS011;52468;40.116;18.296;2023-04-01T13:29:17;10.30;;;4.17;;
51810;SDS011;52468;40.116;18.296;2023-04-01T13:37:54;7.77;;;2.80;;
51810;SDS011;52468;40.116;18.296;2023-04-01T13:43:04;5.00;;;2.53;;
51810;SDS011;52468;40.116;18.296;2023-04-01T13:45:38;7.30;;;3.87;;
51810;SDS011;52468;40.116;18.296;2023-04-01T14:01:59;5.57;;;2.27;;
51810;SDS011;52468;40.116;18.296;2023-04-01T14:04:33;11.57;;;3.47;;
51810;SDS011;52468;40.116;18.296;2023-04-01T14:15:54;9.47;;;3.63;;
51810;SDS011;52468;40.116;18.296;2023-04-01T14:18:30;9.37;;;2.43;;
51810;SDS011;52468;40.116;18.296;2023-04-01T14:24:08;5.70;;;2.33;;
51810;SDS011;52468;40.116;18.296;2023-04-01T14:27:00;6.10;;;2.33;;
51810;SDS011;52468;40.116;18.296;2023-04-01T14:29:56;8.53;;;3.57;;
51810;SDS011;52468;40.116;18.296;2023-04-01T14:32:59;7.47;;;2.73;;
51810;SDS011;52468;40.116;18.296;2023-04-01T14:38:43;7.07;;;2.40;;
51810;SDS011;52468;40.116;18.296;2023-04-01T14:41:38;7.60;;;3.20;;
51810;SDS011;52468;40.116;18.296;2023-04-01T14:47:43;8.00;;;2.67;;
51810;SDS011;52468;40.116;18.296;2023-04-01T14:50:24;10.07;;;2.80;;
51810;SDS011;52468;40.116;18.296;2023-04-01T14:53:22;7.70;;;2.67;;
51810;SDS011;52468;40.116;18.296;2023-04-01T14:55:59;7.23;;;3.57;;
51810;SDS011;52468;40.116;18.296;2023-04-01T14:58:49;8.97;;;2.50;;
51810;SDS011;52468;40.116;18.296;2023-04-01T15:04:29;9.07;;;3.87;;
51810;SDS011;52468;40.116;18.296;2023-04-01T15:07:09;8.70;;;2.63;;
51810;SDS011;52468;40.116;18.296;2023-04-01T15:10:30;5.07;;;2.43;;
51810;SDS011;52468;40.116;18.296;2023-04-01T15:15:58;7.33;;;3.83;;
51810;SDS011;52468;40.116;18.296;2023-04-01T15:32:46;9.30;;;3.92;;
51810;SDS011;52468;40.116;18.296;2023-04-01T15:43:27;7.07;;;3.97;;
51810;SDS011;52468;40.116;18.296;2023-04-01T15:49:36;10.20;;;5.13;;
51810;SDS011;52468;40.116;18.296;2023-04-01T15:52:43;12.63;;;3.93;;
51810;SDS011;52468;40.116;18.296;2023-04-01T16:03:40;21.47;;;3.93;;
51810;SDS011;52468;40.116;18.296;2023-04-01T16:06:29;8.70;;;3.43;;
51810;SDS011;52468;40.116;18.296;2023-04-01T16:09:29;6.20;;;3.43;;
51810;SDS011;52468;40.116;18.296;2023-04-01T16:34:37;7.43;;;3.47;;
51810;SDS011;52468;40.116;18.296;2023-04-01T16:37:32;8.73;;;3.50;;
51810;SDS011;52468;40.116;18.296;2023-04-01T16:40:12;9.73;;;4.73;;
51810;SDS011;52468;40.116;18.296;2023-04-01T16:42:56;8.97;;;3.73;;
51810;SDS011;52468;40.116;18.296;2023-04-01T16:45:54;9.27;;;4.60;;
51810;SDS011;52468;40.116;18.296;2023-04-01T16:51:26;14.73;;;4.53;;
51810;SDS011;52468;40.116;18.296;2023-04-01T17:02:26;39.27;;;20.77;;
51810;SDS011;52468;40.116;18.296;2023-04-01T17:05:00;11.53;;;5.27;;
51810;SDS011;52468;40.116;18.296;2023-04-01T17:07:42;7.73;;;4.07;;
51810;SDS011;52468;40.116;18.296;2023-04-01T17:22:22;12.27;;;5.57;;
51810;SDS011;52468;40.116;18.296;2023-04-01T17:31:17;11.67;;;4.93;;
51810;SDS011;52468;40.116;18.296;2023-04-01T17:37:38;8.97;;;4.83;;
51810;SDS011;52468;40.116;18.296;2023-04-01T17:45:55;8.87;;;5.30;;
51810;SDS011;52468;40.116;18.296;2023-04-01T17:48:37;12.30;;;5.67;;
51810;SDS011;52468;40.116;18.296;2023-04-01T17:54:08;6.97;;;4.90;;
51810;SDS011;52468;40.116;18.296;2023-04-01T17:56:49;19.17;;;10.33;;
51810;SDS011;52468;40.116;18.296;2023-04-01T18:05:14;7.65;;;4.13;;
51810;SDS011;52468;40.116;18.296;2023-04-01T18:08:15;10.73;;;4.77;;
51810;SDS011;52468;40.116;18.296;2023-04-01T18:11:22;10.87;;;4.50;;
51810;SDS011;52468;40.116;18.296;2023-04-01T18:23:04;11.30;;;5.93;;
51810;SDS011;52468;40.116;18.296;2023-04-01T18:25:55;7.80;;;4.57;;
51810;SDS011;52468;40.116;18.296;2023-04-01T18:28:38;9.50;;;5.37;;
51810;SDS011;52468;40.116;18.296;2023-04-01T18:31:24;12.43;;;6.27;;
51810;SDS011;52468;40.116;18.296;2023-04-01T18:34:07;15.17;;;6.10;;
51810;SDS011;52468;40.116;18.296;2023-04-01T18:39:22;13.13;;;7.57;;
51810;SDS011;52468;40.116;18.296;2023-04-01T18:42:03;15.50;;;6.93;;
51810;SDS011;52468;40.116;18.296;2023-04-01T18:52:25;13.30;;;5.13;;
51810;SDS011;52468;40.116;18.296;2023-04-01T19:00:28;12.83;;;5.97;;
51810;SDS011;52468;40.116;18.296;2023-04-01T19:03:07;14.23;;;6.90;;
51810;SDS011;52468;40.116;18.296;2023-04-01T19:05:55;15.20;;;5.77;;
51810;SDS011;52468;40.116;18.296;2023-04-01T19:26:11;13.33;;;8.00;;
51810;SDS011;52468;40.116;18.296;2023-04-01T19:28:56;10.93;;;3.83;;
51810;SDS011;52468;40.116;18.296;2023-04-01T19:32:02;9.03;;;3.77;;
51810;SDS011;52468;40.116;18.296;2023-04-01T19:51:32;9.67;;;3.37;;
51810;SDS011;52468;40.116;18.296;2023-04-01T20:05:23;12.77;;;3.70;;
51810;SDS011;52468;40.116;18.296;2023-04-01T20:08:04;9.93;;;4.17;;
51810;SDS011;52468;40.116;18.296;2023-04-01T20:14:06;6.13;;;4.00;;
51810;SDS011;52468;40.116;18.296;2023-04-01T20:16:58;8.03;;;3.47;;
51810;SDS011;52468;40.116;18.296;2023-04-01T20:19:44;13.83;;;3.90;;
51810;SDS011;52468;40.116;18.296;2023-04-01T20:53:43;8.23;;;3.60;;
51810;SDS011;52468;40.116;18.296;2023-04-01T20:56:40;10.30;;;3.73;;
51810;SDS011;52468;40.116;18.296;2023-04-01T20:59:35;13.53;;;2.93;;
51810;SDS011;52468;40.116;18.296;2023-04-01T22:03:50;9.50;;;2.87;;
51810;SDS011;52468;40.116;18.296;2023-04-01T22:15:01;9.37;;;2.60;;
51810;SDS011;52468;40.116;18.296;2023-04-01T22:20:30;6.60;;;2.60;;
51810;SDS011;52468;40.116;18.296;2023-04-01T22:23:29;11.30;;;3.47;;
51810;SDS011;52468;40.116;18.296;2023-04-01T22:34:31;11.02;;;2.92;;
51810;SDS011;52468;40.116;18.296;2023-04-01T22:37:18;10.17;;;4.03;;
51810;SDS011;52468;40.116;18.296;2023-04-01T22:53:26;12.17;;;1.83;;
51810;SDS011;52468;40.116;18.296;2023-04-01T22:56:48;9.03;;;2.50;;
51810;SDS011;52468;40.116;18.296;2023-04-01T22:59:13;7.50;;;4.13;;
51810;SDS011;52468;40.116;18.296;2023-04-01T23:01:56;6.40;;;1.97;;
51810;SDS011;52468;40.116;18.296;2023-04-01T23:04:32;11.80;;;2.33;;
51810;SDS011;52468;40.116;18.296;2023-04-01T23:07:12;9.03;;;2.90;;
51810;SDS011;52468;40.116;18.296;2023-04-01T23:09:56;13.40;;;3.60;;
51810;SDS011;52468;40.116;18.296;2023-04-01T23:12:26;6.90;;;3.83;;
51810;SDS011;52468;40.116;18.296;2023-04-01T23:14:56;12.63;;;4.20;;
51810;SDS011;52468;40.116;18.296;2023-04-01T23:17:41;7.93;;;2.00;;
51810;SDS011;52468;40.116;18.296;2023-04-01T23:25:55;7.77;;;3.40;;
51810;SDS011;52468;40.116;18.296;2023-04-01T23:28:46;7.23;;;2.00;;
51810;SDS011;52468;40.116;18.296;2023-04-01T23:34:00;9.10;;;2.60;;
51810;SDS011;52468;40.116;18.296;2023-04-01T23:36:45;9.70;;;2.13;;
51810;SDS011;52468;40.116;18.296;2023-04-01T23:41:59;13.10;;;3.25;;
51810;SDS011;52468;40.116;18.296;2023-04-01T23:44:29;7.70;;;2.33;;
51810;SDS011;52468;40.116;18.296;2023-04-01T23:46:59;9.93;;;2.50;;
51810;SDS011;52468;40.116;18.296;2023-04-01T23:49:30;8.00;;;3.00;;
51810;SDS011;52468;40.116;18.296;2023-04-01T23:52:08;10.30;;;2.60;;
51810;SDS011;52468;40.116;18.296;2023-04-01T23:57:27;7.63;;;3.33;;
